Date,TemperatureHighF,TemperatureAvgF,TemperatureLowF,DewpointHighF,DewpointAvgF,DewpointLowF,HumidityHigh,HumidityAvg,HumidityLow,PressureMaxIn,PressureMinIn,WindSpeedMaxMPH,WindSpeedAvgMPH,GustSpeedMaxMPH,PrecipitationSumIn
2013-1-1,31.5,26.8,19.0,26.9,21.9,15.8,91,82,67,30.18,30.07,9,4,12,0.00
2013-1-2,25.3,15.9,6.9,17.2,10.9,3.9,91,80,71,30.26,30.17,6,2,9,0.00
2013-1-3,30.0,23.9,13.6,25.5,18.5,6.4,87,80,71,30.28,30.18,12,6,17,0.00
2013-1-4,28.8,22.2,13.9,24.3,18.5,11.3,91,85,78,30.30,30.22,15,8,25,0.00
2013-1-5,36.2,28.4,19.1,29.7,24.3,17.1,92,85,72,30.32,30.09,10,2,17,0.00
2013-1-6,35.6,31.4,25.9,32.2,27.9,22.6,91,87,85,30.34,29.97,13,7,20,0.00
2013-1-7,37.1,27.2,17.9,27.9,23.2,16.5,94,85,68,30.43,30.20,6,2,12,0.00
2013-1-8,40.2,31.7,23.8,30.9,26.4,21.6,91,81,69,30.28,30.17,5,1,8,0.00
2013-1-9,45.1,38.9,28.5,35.7,32.0,22.8,84,76,59,30.49,30.12,15,6,21,0.00
2013-1-10,40.4,32.7,23.1,36.8,28.0,21.0,94,83,68,30.54,30.08,7,2,11,0.23
2013-1-11,53.7,48.3,38.5,51.5,46.2,36.7,98,92,86,30.05,29.75,16,4,22,0.36
2013-1-12,56.9,50.6,44.4,50.8,47.5,43.3,98,89,79,29.94,29.78,8,2,16,0.32
2013-1-13,44.5,34.5,22.8,43.4,33.2,20.3,97,95,90,30.17,29.77,13,7,20,0.51
2013-1-14,23.1,19.9,16.3,19.6,16.8,13.2,93,88,83,30.49,30.19,13,5,18,0.00
2013-1-15,29.3,21.4,13.0,22.3,17.9,11.1,94,86,74,30.46,30.18,4,0,9,0.00
2013-1-16,35.1,28.1,20.0,28.6,22.9,18.5,95,82,60,30.17,29.93,16,6,23,0.00
2013-1-17,33.7,29.7,22.1,28.5,24.0,16.5,91,80,65,30.40,30.06,14,7,21,0.00
2013-1-18,38.7,29.4,18.9,27.8,20.7,14.6,86,70,57,30.47,30.06,11,4,19,0.00
2013-1-19,48.4,41.6,37.1,37.2,32.4,27.8,78,70,61,30.05,29.78,17,8,33,0.00
2013-1-20,41.3,23.7,18.4,34.7,15.8,11.2,82,72,53,30.26,29.79,26,11,37,0.00
2013-1-21,19.1,13.9,8.3,11.6,6.5,0.6,80,72,64,30.26,30.12,17,11,27,0.00
2013-1-22,12.8,8.1,3.5,2.5,0.3,-1.5,80,70,59,30.41,30.26,15,8,21,0.00
2013-1-23,19.5,14.6,9.3,15.8,7.6,1.5,89,73,61,30.38,30.14,13,8,21,0.00
2013-1-24,21.3,16.0,9.5,14.6,7.5,4.5,87,70,51,30.66,30.23,16,2,19,0.00
2013-1-25,24.3,21.0,17.9,21.2,15.6,9.1,89,80,66,30.45,30.05,8,2,12,0.00
2013-1-26,26.8,24.6,22.5,21.9,19.8,18.3,87,82,75,30.45,30.10,12,5,14,0.00
2013-1-27,33.3,26.4,18.8,32.0,22.0,15.8,95,83,74,30.46,30.08,7,2,12,0.10
2013-1-28,47.8,44.1,33.8,47.0,43.5,32.5,99,98,95,30.07,29.93,9,3,15,0.17
2013-1-29,58.4,54.3,47.5,56.7,53.6,47.2,99,97,94,29.94,29.37,9,4,18,0.78
2013-1-30,60.7,44.7,29.3,58.1,43.4,26.7,99,95,88,29.46,29.18,22,7,33,0.75
2013-1-31,27.4,19.4,11.4,24.3,15.4,6.2,91,84,75,30.07,29.51,21,13,30,0.00